Time;durP1;ratioP1;P1;durP2;ratioP2;P2;SDS_P1;SDS_P2;PMS_P1;PMS_P2;Temp;Humidity;BMP_temperature;BMP_pressure;BME280_temperature;BME280_humidity;BME280_pressure;Samples;Min_cycle;Max_cycle;Signal;HPM_P1;HPM_P2
2022/02/06 00:01:25;;;;;;;2.40;2.00;;;4.60;99.90;;;;;;4987104;28;20463;-80
2022/02/06 00:04:11;;;;;;;9.00;2.30;;;4.70;99.90;;;;;;4988720;28;20371;-79
2022/02/06 00:06:55;;;;;;;6.20;2.70;;;4.70;99.90;;;;;;4965801;28;20937;-80
2022/02/06 00:09:41;;;;;;;1.40;1.30;;;4.80;99.90;;;;;;4975220;28;20912;-80
2022/02/06 00:12:27;;;;;;;2.80;1.80;;;4.80;99.90;;;;;;4988787;28;20360;-80
2022/02/06 00:15:12;;;;;;;3.63;1.53;;;4.70;99.90;;;;;;4988177;28;20392;-80
2022/02/06 00:17:56;;;;;;;3.20;2.20;;;4.70;99.90;;;;;;5003326;28;20383;-80
2022/02/06 00:20:50;;;;;;;1.53;1.43;;;4.80;99.90;;;;;;4988669;28;20463;-80
2022/02/06 00:23:35;;;;;;;2.00;1.80;;;4.80;99.90;;;;;;4990299;28;20360;-79
2022/02/06 00:26:34;;;;;;;6.37;2.83;;;4.90;99.90;;;;;;4989599;28;20520;-80
2022/02/06 00:29:25;;;;;;;4.67;4.13;;;4.70;99.90;;;;;;4943317;29;20410;-77
2022/02/06 00:32:21;;;;;;;1.83;1.73;;;4.80;99.90;;;;;;4957380;29;20436;-77
2022/02/06 00:38:26;;;;;;;4.50;2.27;;;4.70;99.90;;;;;;4957485;29;20394;-77
2022/02/06 00:41:22;;;;;;;1.70;1.60;;;4.80;99.90;;;;;;4956681;29;20446;-77
2022/02/06 00:44:08;;;;;;;2.93;1.93;;;4.70;99.90;;;;;;4944460;29;20561;-77
2022/02/06 00:46:56;;;;;;;3.73;1.77;;;4.70;99.90;;;;;;4958038;29;20443;-77
2022/02/06 00:49:43;;;;;;;1.97;1.87;;;4.80;99.90;;;;;;4955986;29;20399;-77
2022/02/06 00:52:35;;;;;;;1.77;1.67;;;4.90;99.90;;;;;;4942564;29;20410;-80
2022/02/06 00:55:20;;;;;;;5.43;1.87;;;4.80;99.90;;;;;;4942943;29;20412;-80
2022/02/06 00:58:05;;;;;;;1.53;1.40;;;4.80;99.90;;;;;;4929849;29;20414;-79
2022/02/06 01:00:49;;;;;;;9.90;2.10;;;4.90;99.90;;;;;;5009690;28;20426;-79
2022/02/06 01:03:36;;;;;;;1.83;1.67;;;4.90;99.90;;;;;;4999568;28;20500;-77
2022/02/06 01:06:27;;;;;;;1.40;1.30;;;5.00;99.90;;;;;;5014087;28;20419;-77
2022/02/06 01:09:11;;;;;;;2.27;2.17;;;4.90;99.90;;;;;;4971111;28;20412;-77
2022/02/06 01:11:56;;;;;;;4.70;2.20;;;4.90;99.90;;;;;;4984601;28;20781;-78
2022/02/06 01:17:46;;;;;;;4.10;1.60;;;4.90;99.90;;;;;;5001031;28;20387;-78
2022/02/06 01:20:37;;;;;;;2.13;1.80;;;4.90;99.90;;;;;;5000236;28;20403;-80
2022/02/06 01:23:28;;;;;;;2.50;1.53;;;5.00;99.90;;;;;;5014100;28;20456;-77
2022/02/06 01:26:24;;;;;;;1.50;1.40;;;5.00;99.90;;;;;;4986836;28;20364;-77
2022/02/06 01:29:19;;;;;;;2.80;1.43;;;5.00;99.90;;;;;;4993545;28;20360;-79
2022/02/06 01:32:09;;;;;;;2.20;1.97;;;5.20;99.90;;;;;;4984890;28;20466;-77
2022/02/06 01:35:02;;;;;;;2.27;2.07;;;5.10;99.90;;;;;;4976782;28;20700;-80
2022/02/06 01:37:56;;;;;;;1.57;1.47;;;5.10;99.90;;;;;;4987220;28;20753;-80
2022/02/06 01:40:55;;;;;;;3.67;2.13;;;5.10;99.90;;;;;;4974533;28;20433;-80
2022/02/06 01:43:45;;;;;;;1.77;1.67;;;5.20;99.90;;;;;;4956805;28;20455;-80
2022/02/06 02:02:03;;;;;;;4.73;1.77;;;5.30;99.90;;;;;;4943487;29;20514;-80
2022/02/06 02:05:28;;;;;;;6.07;1.70;;;5.30;99.90;;;;;;4941872;29;20504;-80
2022/02/06 02:14:19;;;;;;;3.30;2.50;;;5.40;99.90;;;;;;4941446;29;20768;-80
2022/02/06 02:17:25;;;;;;;1.40;1.30;;;5.60;99.90;;;;;;4930458;29;20487;-80
2022/02/06 02:20:36;;;;;;;2.27;2.10;;;5.40;99.90;;;;;;4941559;29;20761;-80
2022/02/06 02:26:33;;;;;;;2.27;1.67;;;5.50;99.90;;;;;;4941889;29;20797;-80
2022/02/06 02:29:53;;;;;;;2.33;2.13;;;5.60;99.90;;;;;;4930830;29;20370;-80
2022/02/06 02:47:14;;;;;;;1.60;1.50;;;5.50;99.90;;;;;;4988621;28;20448;-80
2022/02/06 02:50:05;;;;;;;2.67;1.90;;;5.50;99.90;;;;;;4962823;28;20436;-80
2022/02/06 02:53:01;;;;;;;1.90;1.70;;;5.50;99.90;;;;;;4987758;28;20846;-80
2022/02/06 02:59:00;;;;;;;7.80;1.90;;;5.50;99.90;;;;;;4989742;28;20391;-80
2022/02/06 03:01:57;;;;;;;1.70;1.60;;;5.60;99.90;;;;;;4977640;28;20446;-80
2022/02/06 03:04:47;;;;;;;1.43;1.30;;;5.50;99.90;;;;;;5004567;28;20380;-79
2022/02/06 03:07:31;;;;;;;1.53;1.43;;;5.50;99.90;;;;;;4990386;28;20941;-80
2022/02/06 03:10:16;;;;;;;10.40;1.70;;;5.50;99.90;;;;;;4977428;28;20385;-80
2022/02/06 03:13:05;;;;;;;3.00;1.83;;;5.50;99.90;;;;;;4993533;28;20432;-79
2022/02/06 03:16:16;;;;;;;1.90;1.80;;;5.60;99.90;;;;;;4980788;28;20444;-80
2022/02/06 03:19:05;;;;;;;3.63;1.93;;;5.60;99.90;;;;;;4994406;28;20383;-80
2022/02/06 03:21:51;;;;;;;3.60;1.90;;;5.60;99.90;;;;;;4990125;28;21012;-80
2022/02/06 03:24:42;;;;;;;1.77;1.57;;;5.70;99.90;;;;;;5003912;28;20379;-80
2022/02/06 03:27:27;;;;;;;2.27;2.10;;;5.60;99.90;;;;;;4991015;28;20388;-80
2022/02/06 03:30:11;;;;;;;1.90;1.50;;;5.70;99.90;;;;;;4976393;28;20474;-80
2022/02/06 03:32:56;;;;;;;6.23;2.63;;;5.80;99.90;;;;;;4989873;28;20393;-80
2022/02/06 03:35:41;;;;;;;1.90;1.67;;;5.70;99.90;;;;;;4975575;28;20405;-80
2022/02/06 03:38:26;;;;;;;4.40;2.03;;;5.80;99.90;;;;;;4975377;28;20363;-80
2022/02/06 03:41:12;;;;;;;4.63;1.60;;;5.80;99.90;;;;;;4975314;28;20544;-80
2022/02/06 03:44:04;;;;;;;1.83;1.70;;;5.90;99.90;;;;;;4976372;28;20909;-80
2022/02/06 03:47:03;;;;;;;7.63;3.53;;;5.90;99.90;;;;;;4976524;28;20362;-80
2022/02/06 03:49:55;;;;;;;1.83;1.43;;;5.90;99.90;;;;;;4991234;28;20388;-79
2022/02/06 03:52:47;;;;;;;1.87;1.50;;;5.70;99.90;;;;;;4989911;28;20360;-80
2022/02/06 03:55:33;;;;;;;1.93;1.20;;;5.60;99.90;;;;;;5004005;28;20475;-80
2022/02/06 03:58:18;;;;;;;1.40;1.30;;;5.60;99.90;;;;;;4975504;28;20367;-79
2022/02/06 04:01:02;;;;;;;5.13;1.77;;;5.60;99.90;;;;;;4975316;28;20448;-80
2022/02/06 04:03:47;;;;;;;3.47;1.77;;;5.70;99.90;;;;;;4942884;28;20380;-79
2022/02/06 04:06:31;;;;;;;1.60;1.50;;;5.60;99.90;;;;;;4969641;28;20390;-79
2022/02/06 04:09:21;;;;;;;4.17;1.40;;;5.60;99.90;;;;;;4969612;28;20394;-80
2022/02/06 04:12:06;;;;;;;2.87;1.57;;;5.80;99.90;;;;;;4969039;28;20426;-80
2022/02/06 04:14:57;;;;;;;2.90;1.57;;;5.70;99.90;;;;;;4942460;28;20906;-80
2022/02/06 04:17:47;;;;;;;1.83;1.60;;;5.70;99.90;;;;;;4969989;28;20415;-80
2022/02/06 04:20:32;;;;;;;1.60;1.23;;;5.80;99.90;;;;;;4970915;28;20463;-80
2022/02/06 04:23:16;;;;;;;3.07;1.43;;;5.50;99.90;;;;;;4955945;28;20433;-79
2022/02/06 04:26:01;;;;;;;5.00;2.47;;;5.50;99.90;;;;;;4935755;29;20442;-80
2022/02/06 04:28:46;;;;;;;7.20;1.37;;;5.60;99.90;;;;;;4962152;28;20402;-79
2022/02/06 04:31:32;;;;;;;3.73;1.63;;;5.50;99.90;;;;;;4949230;29;20403;-79
2022/02/06 04:34:21;;;;;;;2.63;1.23;;;5.40;99.90;;;;;;4949062;28;20418;-80
2022/02/06 04:37:23;;;;;;;2.13;1.47;;;5.50;99.90;;;;;;4961958;29;20398;-80
2022/02/06 04:40:17;;;;;;;7.90;2.47;;;5.40;99.90;;;;;;4937916;29;20841;-78
2022/02/06 04:46:44;;;;;;;1.67;1.57;;;5.30;99.90;;;;;;4970997;28;20444;-79
2022/02/06 04:49:45;;;;;;;1.30;1.20;;;5.30;99.90;;;;;;4981192;28;20381;-80
2022/02/06 05:16:34;;;;;;;1.37;1.20;;;5.40;99.90;;;;;;5009048;28;20388;-80
2022/02/06 05:22:44;;;;;;;1.40;1.30;;;5.50;99.90;;;;;;4997956;28;20474;-80
2022/02/06 05:28:39;;;;;;;1.77;1.63;;;5.60;99.90;;;;;;5022903;28;20394;-80
2022/02/06 05:31:43;;;;;;;3.50;1.97;;;5.70;99.90;;;;;;5007729;28;20899;-80
2022/02/06 05:34:27;;;;;;;1.40;1.30;;;5.70;99.90;;;;;;5009094;28;20399;-80
2022/02/06 05:37:12;;;;;;;5.90;1.80;;;5.80;99.90;;;;;;5021231;28;20378;-80
2022/02/06 05:39:57;;;;;;;4.50;1.20;;;5.80;99.90;;;;;;5006308;28;20425;-80
2022/02/06 05:42:43;;;;;;;1.67;1.20;;;5.80;99.90;;;;;;5006438;28;20419;-80
2022/02/06 05:45:27;;;;;;;1.73;1.20;;;5.80;99.90;;;;;;5021406;28;20404;-80
2022/02/06 05:48:12;;;;;;;1.30;1.20;;;5.70;99.90;;;;;;5006139;28;20949;-80
2022/02/06 05:50:56;;;;;;;5.57;1.73;;;5.70;99.90;;;;;;5021301;28;20461;-80
2022/02/06 05:53:42;;;;;;;2.13;1.93;;;5.80;99.90;;;;;;5021682;28;20358;-80
2022/02/06 05:56:27;;;;;;;1.60;1.50;;;5.80;99.90;;;;;;4992879;28;20358;-79
2022/02/06 05:59:11;;;;;;;1.40;1.30;;;5.70;99.90;;;;;;5006477;28;20362;-80
2022/02/06 06:01:56;;;;;;;1.20;1.13;;;5.70;99.90;;;;;;5006279;28;20563;-80
2022/02/06 06:04:41;;;;;;;2.93;1.57;;;5.80;99.90;;;;;;4999062;28;20447;-79
2022/02/06 06:07:26;;;;;;;4.17;2.00;;;5.70;99.90;;;;;;4993213;28;20411;-80
2022/02/06 06:10:12;;;;;;;2.77;1.50;;;5.80;99.90;;;;;;5022717;28;20390;-80
2022/02/06 06:13:00;;;;;;;11.77;2.10;;;5.70;99.90;;;;;;5006718;28;20358;-80
2022/02/06 06:15:45;;;;;;;1.87;1.67;;;5.80;99.90;;;;;;5006927;28;20384;-80
2022/02/06 06:18:30;;;;;;;1.20;1.10;;;5.90;99.90;;;;;;5021250;28;20708;-79
2022/02/06 06:21:14;;;;;;;1.63;1.33;;;5.90;99.90;;;;;;4993205;28;20421;-80
2022/02/06 06:23:59;;;;;;;1.90;1.60;;;5.90;99.90;;;;;;5006491;28;20870;-80
2022/02/06 06:26:44;;;;;;;1.23;1.13;;;6.00;99.90;;;;;;5024790;28;20446;-80
2022/02/06 06:29:28;;;;;;;2.50;1.50;;;6.00;99.90;;;;;;5010174;28;20411;-80
2022/02/06 06:32:13;;;;;;;5.20;2.17;;;6.00;99.90;;;;;;4992582;28;20440;-80
2022/02/06 06:35:00;;;;;;;3.73;1.47;;;6.10;99.90;;;;;;5004084;28;20397;-79
2022/02/06 06:37:46;;;;;;;2.40;1.83;;;6.10;99.90;;;;;;5004117;28;20404;-80
2022/02/06 06:40:31;;;;;;;13.27;2.50;;;6.20;99.90;;;;;;4989813;28;20584;-80
2022/02/06 06:43:15;;;;;;;2.33;1.40;;;6.00;99.90;;;;;;5000039;28;20375;-80
2022/02/06 06:45:59;;;;;;;1.40;1.30;;;6.00;99.90;;;;;;4970211;28;20398;-80
2022/02/06 06:48:45;;;;;;;2.03;1.50;;;6.10;99.90;;;;;;4969514;28;20371;-80
2022/02/06 06:51:30;;;;;;;7.80;2.73;;;6.20;99.90;;;;;;4969306;28;20387;-79
2022/02/06 06:54:20;;;;;;;1.50;1.40;;;6.20;99.90;;;;;;4970186;28;20405;-79
2022/02/06 06:57:19;;;;;;;2.10;1.67;;;6.10;99.90;;;;;;4970673;28;20384;-80
2022/02/06 07:00:22;;;;;;;4.03;1.87;;;6.10;99.90;;;;;;4972678;28;20790;-79
2022/02/06 07:03:08;;;;;;;1.90;1.80;;;6.20;99.90;;;;;;4969888;28;20508;-80
2022/02/06 07:05:53;;;;;;;2.40;2.20;;;6.10;99.90;;;;;;4950758;29;20425;-79
2022/02/06 07:08:37;;;;;;;3.07;1.97;;;6.10;99.90;;;;;;4965525;29;20364;-80
2022/02/06 07:11:22;;;;;;;5.17;1.33;;;6.10;99.90;;;;;;4951091;29;20397;-80
2022/02/06 07:14:07;;;;;;;1.97;1.80;;;6.10;99.90;;;;;;4963828;29;20365;-80
2022/02/06 07:16:51;;;;;;;2.13;1.37;;;6.10;99.90;;;;;;4974771;28;20397;-80
2022/02/06 07:19:35;;;;;;;3.73;1.40;;;6.20;99.90;;;;;;4942547;28;20924;-80
2022/02/06 07:22:21;;;;;;;1.70;1.60;;;6.30;99.90;;;;;;4955387;28;20841;-80
2022/02/06 07:25:06;;;;;;;1.77;1.50;;;6.30;99.90;;;;;;4956237;28;20461;-80
2022/02/06 07:27:51;;;;;;;2.97;1.30;;;6.20;99.90;;;;;;4967984;28;20393;-80
2022/02/06 07:30:35;;;;;;;4.80;1.77;;;6.40;99.90;;;;;;4970388;28;20498;-80
2022/02/06 07:33:22;;;;;;;9.37;2.17;;;6.40;99.90;;;;;;4969431;28;20410;-80
2022/02/06 07:36:07;;;;;;;4.70;1.60;;;6.50;99.90;;;;;;4976830;28;20391;-80
2022/02/06 07:38:51;;;;;;;3.13;1.30;;;6.40;99.90;;;;;;4975868;28;20500;-80
2022/02/06 07:41:36;;;;;;;3.23;2.17;;;6.30;99.90;;;;;;5004546;28;20511;-80
2022/02/06 07:44:21;;;;;;;12.73;2.70;;;6.30;99.90;;;;;;5004333;28;20768;-79
2022/02/06 07:47:13;;;;;;;1.43;1.33;;;6.40;99.90;;;;;;4976254;28;20415;-80
2022/02/06 07:50:02;;;;;;;2.60;2.40;;;6.50;99.90;;;;;;4991012;28;20364;-80
2022/02/06 07:52:48;;;;;;;4.43;1.70;;;6.40;99.90;;;;;;4989639;28;20485;-80
2022/02/06 07:55:33;;;;;;;1.33;1.23;;;6.50;99.90;;;;;;5003217;28;20376;-80
2022/02/06 07:58:17;;;;;;;3.47;2.17;;;6.50;99.90;;;;;;5003818;28;20379;-79
2022/02/06 08:01:02;;;;;;;3.60;1.40;;;6.60;99.90;;;;;;5005395;28;20414;-79
2022/02/06 08:03:46;;;;;;;7.80;2.20;;;6.50;99.90;;;;;;4996170;28;20437;-79
2022/02/06 08:06:31;;;;;;;7.03;1.73;;;6.30;99.90;;;;;;5023776;28;20441;-80
2022/02/06 08:09:20;;;;;;;4.77;1.47;;;6.50;99.90;;;;;;5008466;28;20366;-80
2022/02/06 08:12:06;;;;;;;1.53;1.30;;;6.40;99.90;;;;;;5023963;28;20713;-80
2022/02/06 08:14:54;;;;;;;6.70;1.83;;;6.60;99.90;;;;;;5009056;28;20434;-79
2022/02/06 08:17:39;;;;;;;3.10;2.77;;;6.60;99.90;;;;;;4970148;28;20406;-79
2022/02/06 08:20:24;;;;;;;3.70;1.80;;;6.50;99.90;;;;;;4983102;28;20389;-79
2022/02/06 08:23:09;;;;;;;2.53;2.33;;;6.60;99.90;;;;;;4982454;28;20424;-79
2022/02/06 08:25:53;;;;;;;1.77;1.30;;;6.70;99.90;;;;;;4982445;28;20418;-78
2022/02/06 08:28:38;;;;;;;1.67;1.57;;;6.80;99.90;;;;;;4985168;28;20355;-80
2022/02/06 08:31:22;;;;;;;3.17;1.73;;;6.80;99.90;;;;;;4984018;28;20766;-80
2022/02/06 08:34:06;;;;;;;1.43;1.33;;;6.70;99.90;;;;;;4971019;28;20368;-79
2022/02/06 08:36:51;;;;;;;6.10;1.47;;;6.60;99.90;;;;;;4969495;28;20791;-80
2022/02/06 08:39:37;;;;;;;1.73;1.63;;;6.70;99.90;;;;;;4981630;28;20396;-80
2022/02/06 08:42:22;;;;;;;5.03;1.50;;;6.80;99.90;;;;;;4981472;28;20464;-80
2022/02/06 08:45:09;;;;;;;3.47;1.60;;;6.60;99.90;;;;;;4980853;28;20380;-80
2022/02/06 08:47:54;;;;;;;1.80;1.70;;;6.60;99.90;;;;;;4995913;28;20404;-79
2022/02/06 08:50:38;;;;;;;3.23;1.87;;;6.70;99.90;;;;;;4994000;28;20366;-80
2022/02/06 08:53:23;;;;;;;3.00;1.87;;;6.90;99.90;;;;;;4993557;28;20462;-80
2022/02/06 08:56:08;;;;;;;4.63;1.33;;;6.90;99.90;;;;;;5006968;28;20395;-79
2022/02/06 08:58:53;;;;;;;1.93;1.50;;;6.90;99.90;;;;;;5007340;28;20414;-80
2022/02/06 09:01:38;;;;;;;4.87;1.50;;;6.90;99.90;;;;;;5023759;28;20458;-79
2022/02/06 09:04:23;;;;;;;2.33;2.20;;;6.80;99.90;;;;;;5003259;28;20407;-79
2022/02/06 09:07:08;;;;;;;1.77;1.53;;;7.00;99.90;;;;;;4986943;28;20397;-80
2022/02/06 09:09:58;;;;;;;12.30;2.13;;;7.00;99.90;;;;;;5000688;28;20412;-80
2022/02/06 09:12:51;;;;;;;5.43;2.27;;;7.00;99.90;;;;;;4987270;28;20424;-79
2022/02/06 09:15:35;;;;;;;3.00;2.37;;;7.10;99.90;;;;;;4974537;28;20440;-79
2022/02/06 09:18:19;;;;;;;2.70;1.50;;;7.10;99.90;;;;;;4974426;28;20420;-79
2022/02/06 09:21:04;;;;;;;1.87;1.33;;;7.10;99.90;;;;;;4984978;28;20536;-78
2022/02/06 09:23:48;;;;;;;5.30;1.90;;;6.90;99.90;;;;;;4998749;28;20560;-79
2022/02/06 09:26:35;;;;;;;2.03;1.67;;;7.00;99.90;;;;;;5002310;28;20428;-80
2022/02/06 09:29:19;;;;;;;1.40;1.30;;;6.90;99.90;;;;;;4966818;28;20405;-79
2022/02/06 09:37:38;;;;;;;9.50;1.87;;;6.90;99.90;;;;;;5006045;28;20359;-80
2022/02/06 09:40:26;;;;;;;4.57;2.17;;;7.00;99.90;;;;;;5000258;28;20379;-80
2022/02/06 09:43:12;;;;;;;1.87;1.73;;;7.00;99.90;;;;;;4985306;28;20419;-79
2022/02/06 09:45:59;;;;;;;1.70;1.60;;;7.20;99.90;;;;;;4985892;28;20377;-80
2022/02/06 09:48:44;;;;;;;6.50;1.87;;;7.20;99.90;;;;;;4984991;28;20448;-80
2022/02/06 09:51:28;;;;;;;1.40;1.30;;;7.10;99.90;;;;;;4999144;28;20395;-80
2022/02/06 09:54:13;;;;;;;1.50;1.40;;;7.10;99.90;;;;;;4985116;28;20460;-80
2022/02/06 09:57:01;;;;;;;1.63;1.53;;;6.50;99.90;;;;;;4985523;28;20389;-80
2022/02/06 09:59:45;;;;;;;1.47;1.37;;;6.80;99.90;;;;;;4985578;28;20402;-80
2022/02/06 10:02:32;;;;;;;2.00;1.60;;;6.60;99.90;;;;;;4990492;28;21009;-80
2022/02/06 10:05:17;;;;;;;1.77;1.47;;;6.60;99.90;;;;;;4965965;28;20413;-79
2022/02/06 10:08:30;;;;;;;1.43;1.33;;;6.50;99.90;;;;;;4981901;28;20386;-79
2022/02/06 10:11:16;;;;;;;4.23;1.50;;;6.30;99.90;;;;;;4979780;28;20441;-80
2022/02/06 10:14:01;;;;;;;1.00;1.00;;;6.50;99.90;;;;;;4982838;28;20514;-79
2022/02/06 10:16:48;;;;;;;4.93;1.67;;;6.40;99.90;;;;;;5002913;28;20396;-78
2022/02/06 10:19:35;;;;;;;2.70;1.20;;;6.20;99.90;;;;;;5004899;28;20404;-79
2022/02/06 10:22:26;;;;;;;1.83;1.73;;;6.20;99.90;;;;;;4953067;29;20452;-79
2022/02/06 10:25:11;;;;;;;1.83;1.73;;;6.10;99.90;;;;;;4967640;29;20398;-77
2022/02/06 10:28:03;;;;;;;7.50;1.40;;;6.10;99.90;;;;;;4968082;29;20465;-82
2022/02/06 10:30:52;;;;;;;3.20;1.00;;;6.00;99.90;;;;;;4947254;29;20815;-80
2022/02/06 10:33:55;;;;;;;2.93;1.40;;;6.10;99.90;;;;;;4921954;29;20428;-80
2022/02/06 10:36:39;;;;;;;1.63;1.30;;;6.00;99.90;;;;;;4948879;29;20413;-80
2022/02/06 10:39:24;;;;;;;6.50;1.60;;;5.90;99.90;;;;;;4922828;29;20475;-79
2022/02/06 10:42:27;;;;;;;1.10;1.00;;;5.80;99.90;;;;;;4934470;29;20507;-79
2022/02/06 10:45:18;;;;;;;1.17;1.07;;;5.80;99.90;;;;;;4948158;29;20441;-78
2022/02/06 10:48:16;;;;;;;2.40;2.20;;;5.80;99.90;;;;;;4930877;29;20403;-80
2022/02/06 10:51:01;;;;;;;3.67;1.53;;;5.70;99.90;;;;;;4943438;29;20491;-80
2022/02/06 10:53:58;;;;;;;1.30;1.20;;;5.90;99.90;;;;;;4960420;29;20417;-80
2022/02/06 10:57:12;;;;;;;1.27;1.17;;;6.00;99.90;;;;;;4961884;29;20413;-80
2022/02/06 10:59:58;;;;;;;2.87;2.70;;;5.90;99.90;;;;;;4962068;29;20474;-80
2022/02/06 11:02:58;;;;;;;1.60;1.27;;;6.00;99.90;;;;;;5012523;28;20471;-80
2022/02/06 11:05:50;;;;;;;5.00;1.73;;;5.90;99.90;;;;;;5029750;28;20359;-80
2022/02/06 11:08:36;;;;;;;2.33;1.40;;;6.10;99.90;;;;;;5022606;28;20390;-80
2022/02/06 11:11:31;;;;;;;1.97;1.87;;;6.10;99.90;;;;;;4992493;28;20447;-80
2022/02/06 11:14:21;;;;;;;2.40;1.33;;;6.30;99.90;;;;;;5020734;28;20395;-80
2022/02/06 11:17:21;;;;;;;3.00;1.87;;;6.50;99.90;;;;;;5020813;28;20439;-80
2022/02/06 11:20:10;;;;;;;5.70;2.47;;;6.50;99.90;;;;;;5020801;28;20809;-80
2022/02/06 11:22:58;;;;;;;2.73;1.70;;;6.50;99.90;;;;;;5006069;28;20426;-81
2022/02/06 11:25:45;;;;;;;1.30;1.20;;;6.60;99.90;;;;;;5021047;28;20434;-81
2022/02/06 11:28:29;;;;;;;1.80;1.70;;;6.80;99.90;;;;;;5007426;28;20843;-80
2022/02/06 11:31:15;;;;;;;1.90;1.67;;;6.80;99.90;;;;;;5021739;28;20423;-80
2022/02/06 11:34:00;;;;;;;2.10;1.90;;;6.80;99.90;;;;;;5009567;28;20929;-81
2022/02/06 11:43:53;;;;;;;1.33;1.23;;;6.80;99.90;;;;;;5014529;28;20403;-81
2022/02/06 11:46:59;;;;;;;2.10;1.90;;;6.60;99.90;;;;;;5005889;28;20391;-81
2022/02/06 11:49:47;;;;;;;3.53;1.77;;;6.70;99.90;;;;;;5008123;28;20442;-80
2022/02/06 11:52:58;;;;;;;3.83;1.40;;;6.70;99.90;;;;;;5021508;28;20394;-81
2022/02/06 11:55:49;;;;;;;1.40;1.30;;;6.70;99.90;;;;;;5020110;28;20384;-80
2022/02/06 11:58:35;;;;;;;1.40;1.30;;;6.50;99.90;;;;;;5005766;28;20437;-81
2022/02/06 12:01:21;;;;;;;2.03;1.10;;;6.50;99.90;;;;;;5019747;28;20421;-80
2022/02/06 12:04:23;;;;;;;1.10;1.00;;;6.60;99.90;;;;;;5005408;28;20436;-81
2022/02/06 12:07:08;;;;;;;2.33;1.40;;;6.30;99.90;;;;;;5019872;28;20388;-81
2022/02/06 12:09:53;;;;;;;1.40;1.20;;;6.40;99.90;;;;;;5020084;28;20392;-81
2022/02/06 12:12:37;;;;;;;1.50;1.30;;;6.30;99.90;;;;;;5005064;28;20431;-80
2022/02/06 12:15:33;;;;;;;2.33;1.20;;;6.30;99.90;;;;;;5020238;28;20357;-81
2022/02/06 12:18:30;;;;;;;1.40;1.30;;;6.30;99.90;;;;;;5019730;28;20392;-81
2022/02/06 12:21:20;;;;;;;1.83;1.73;;;6.60;99.90;;;;;;5004556;28;20535;-81
2022/02/06 12:24:04;;;;;;;3.00;1.50;;;6.50;99.90;;;;;;5020158;28;20433;-81
2022/02/06 12:26:49;;;;;;;2.23;1.40;;;6.60;99.90;;;;;;5019818;28;20366;-81
2022/02/06 12:29:39;;;;;;;1.20;1.10;;;6.40;99.90;;;;;;5019636;28;20392;-81
2022/02/06 12:32:33;;;;;;;2.50;2.30;;;6.60;99.90;;;;;;5020245;28;20399;-80
2022/02/06 12:38:26;;;;;;;1.33;1.23;;;6.40;99.90;;;;;;5020009;28;20422;-81
2022/02/06 12:41:24;;;;;;;1.83;1.73;;;6.40;99.90;;;;;;5005070;28;20503;-81
2022/02/06 12:44:09;;;;;;;1.33;1.23;;;6.40;99.90;;;;;;5020991;28;20790;-81
2022/02/06 12:47:00;;;;;;;2.50;1.23;;;6.60;99.90;;;;;;5022204;28;20477;-79
2022/02/06 12:49:46;;;;;;;1.33;1.20;;;6.40;99.90;;;;;;5019902;28;20811;-81
2022/02/06 12:52:35;;;;;;;1.10;1.00;;;6.50;99.90;;;;;;5005264;28;20400;-82
2022/02/06 12:55:22;;;;;;;1.30;1.20;;;6.50;99.90;;;;;;5021342;28;20366;-81
2022/02/06 12:58:09;;;;;;;1.10;1.00;;;6.30;99.90;;;;;;5021096;28;20971;-82
2022/02/06 13:00:55;;;;;;;1.10;1.00;;;6.30;99.90;;;;;;5022340;28;20421;-81
2022/02/06 13:03:42;;;;;;;3.47;1.53;;;6.40;99.90;;;;;;5024797;28;20486;-81
2022/02/06 13:06:34;;;;;;;12.40;1.50;;;6.20;99.90;;;;;;5026113;28;20862;-80
2022/02/06 13:09:27;;;;;;;1.40;1.30;;;6.20;99.90;;;;;;5024047;28;20481;-81
2022/02/06 13:12:25;;;;;;;1.20;1.10;;;6.10;99.90;;;;;;5025017;28;20407;-81
2022/02/06 13:15:42;;;;;;;2.60;1.00;;;6.30;99.90;;;;;;5025266;28;20453;-81
2022/02/06 13:18:21;;;;;;;2.10;1.37;;;6.30;99.90;;;;;;5025181;28;20390;-81
2022/02/06 13:24:33;;;;;;;9.50;1.47;;;6.20;99.90;;;;;;5025018;28;20432;-81
2022/02/06 13:30:28;;;;;;;1.30;1.20;;;6.10;99.90;;;;;;5013551;28;20401;-81
2022/02/06 13:33:50;;;;;;;1.23;1.17;;;6.10;99.90;;;;;;5026532;28;20817;-81
2022/02/06 13:36:40;;;;;;;1.87;1.67;;;6.10;99.90;;;;;;5027744;28;20400;-81
2022/02/06 13:39:31;;;;;;;2.70;1.20;;;6.00;99.90;;;;;;5027403;28;20462;-81
2022/02/06 13:42:17;;;;;;;1.80;1.27;;;6.00;99.90;;;;;;5021371;28;20451;-81
2022/02/06 13:45:07;;;;;;;1.80;1.70;;;6.00;99.90;;;;;;5005148;28;20363;-81
2022/02/06 13:47:54;;;;;;;1.30;1.20;;;6.10;99.90;;;;;;5018847;28;20476;-80
2022/02/06 13:50:45;;;;;;;3.20;2.70;;;6.00;99.90;;;;;;5004180;28;20420;-81
2022/02/06 13:53:33;;;;;;;1.00;1.00;;;5.90;99.90;;;;;;4989602;28;20459;-79
2022/02/06 13:56:18;;;;;;;1.50;1.40;;;5.90;99.90;;;;;;5003467;28;20743;-81
2022/02/06 13:59:06;;;;;;;3.10;1.20;;;6.00;99.90;;;;;;5017891;28;20392;-81
2022/02/06 14:01:53;;;;;;;3.40;1.50;;;6.00;99.90;;;;;;5018704;28;20466;-80
2022/02/06 14:04:41;;;;;;;1.20;1.10;;;5.90;99.90;;;;;;5020099;28;20369;-80
2022/02/06 14:07:26;;;;;;;1.50;1.40;;;5.90;99.90;;;;;;5018095;28;20908;-81
2022/02/06 14:10:14;;;;;;;1.33;1.23;;;5.90;99.90;;;;;;5019292;28;20426;-81
2022/02/06 14:12:58;;;;;;;1.77;1.40;;;5.90;99.90;;;;;;5018360;28;20415;-81
2022/02/06 14:15:43;;;;;;;9.00;1.43;;;5.80;99.90;;;;;;5018212;28;20442;-81
2022/02/06 14:18:28;;;;;;;1.77;1.13;;;5.90;99.90;;;;;;5003604;28;20391;-80
2022/02/06 14:21:12;;;;;;;1.53;1.43;;;5.80;99.90;;;;;;5017803;28;20441;-81
2022/02/06 14:24:08;;;;;;;2.17;1.97;;;5.90;99.90;;;;;;5018204;28;20403;-81
2022/02/06 14:27:03;;;;;;;1.60;1.50;;;5.90;99.90;;;;;;5003384;28;20789;-81
2022/02/06 14:29:58;;;;;;;2.70;1.90;;;5.90;99.90;;;;;;5018085;28;20366;-80
2022/02/06 14:33:02;;;;;;;1.27;1.17;;;5.90;99.90;;;;;;5018029;28;20394;-81
2022/02/06 14:35:55;;;;;;;0.90;0.90;;;5.80;99.90;;;;;;5003126;28;20365;-81
2022/02/06 14:38:51;;;;;;;2.03;1.53;;;5.80;99.90;;;;;;5017623;28;20367;-81
2022/02/06 14:44:34;;;;;;;1.33;1.23;;;5.90;99.90;;;;;;5017737;28;20858;-81
2022/02/06 14:47:19;;;;;;;1.40;1.30;;;5.90;99.90;;;;;;5017460;28;20429;-80
2022/02/06 14:50:16;;;;;;;1.10;1.10;;;5.90;99.90;;;;;;5002438;28;20366;-79
2022/02/06 14:53:01;;;;;;;1.40;1.30;;;5.80;99.90;;;;;;5003032;28;20443;-80
2022/02/06 14:55:47;;;;;;;1.10;1.00;;;5.90;99.90;;;;;;5017778;28;20429;-80
2022/02/06 14:58:32;;;;;;;0.93;0.93;;;6.00;99.90;;;;;;5003486;28;20418;-79
2022/02/06 15:01:17;;;;;;;1.20;1.10;;;6.00;99.90;;;;;;5018530;28;20535;-79
2022/02/06 15:04:03;;;;;;;1.70;1.60;;;6.00;99.90;;;;;;4998547;28;20392;-79
2022/02/06 15:06:47;;;;;;;1.20;1.10;;;6.00;99.90;;;;;;5002079;28;20914;-79
2022/02/06 15:09:32;;;;;;;1.70;1.27;;;6.10;99.90;;;;;;5002574;28;20424;-81
2022/02/06 15:12:16;;;;;;;1.20;1.10;;;6.20;99.90;;;;;;5002082;28;20380;-81
2022/02/06 15:15:02;;;;;;;1.00;1.00;;;6.20;99.90;;;;;;4986356;28;20851;-81
2022/02/06 15:17:50;;;;;;;1.67;1.47;;;6.20;99.90;;;;;;4987126;28;20366;-81
2022/02/06 15:20:37;;;;;;;1.20;1.10;;;6.10;99.90;;;;;;5001769;28;20359;-81
2022/02/06 15:23:24;;;;;;;1.03;0.97;;;6.20;99.90;;;;;;5001321;28;20486;-81
2022/02/06 15:26:09;;;;;;;2.00;1.10;;;6.40;99.90;;;;;;4986855;28;20793;-81
2022/02/06 15:28:53;;;;;;;1.20;1.10;;;6.50;99.90;;;;;;5001587;28;20389;-81
2022/02/06 15:31:38;;;;;;;3.13;1.13;;;6.50;99.90;;;;;;5000805;28;20409;-81
2022/02/06 15:34:23;;;;;;;1.60;1.50;;;6.30;99.90;;;;;;5000717;28;20408;-81
2022/02/06 15:37:08;;;;;;;1.07;1.03;;;6.40;99.90;;;;;;5002329;28;20408;-81
2022/02/06 15:39:52;;;;;;;1.37;1.27;;;6.40;99.90;;;;;;5001849;28;20901;-81
2022/02/06 15:42:37;;;;;;;1.07;0.97;;;6.60;99.90;;;;;;5003432;28;20452;-80
2022/02/06 15:45:21;;;;;;;1.00;0.97;;;6.70;99.90;;;;;;5004496;28;20432;-81
2022/02/06 15:48:07;;;;;;;1.10;1.00;;;6.70;99.90;;;;;;5001525;28;20371;-80
2022/02/06 15:50:52;;;;;;;0.90;0.90;;;6.70;99.90;;;;;;5001905;28;20400;-79
2022/02/06 15:53:36;;;;;;;0.90;0.90;;;6.60;99.90;;;;;;4986946;28;20396;-80
2022/02/06 15:56:21;;;;;;;1.13;1.00;;;6.60;99.90;;;;;;5001101;28;20400;-81
2022/02/06 15:59:06;;;;;;;1.20;1.10;;;6.60;99.90;;;;;;5001507;28;20732;-80
2022/02/06 16:01:51;;;;;;;1.57;1.43;;;6.70;99.90;;;;;;4990057;28;20475;-80
2022/02/06 16:04:35;;;;;;;1.00;0.90;;;6.70;99.90;;;;;;5020916;28;20950;-81
2022/02/06 16:07:20;;;;;;;0.90;0.90;;;6.80;99.90;;;;;;5021556;28;20403;-81
2022/02/06 16:10:05;;;;;;;1.10;1.00;;;6.80;99.90;;;;;;5022027;28;20384;-80
2022/02/06 16:12:49;;;;;;;0.90;0.90;;;6.70;99.90;;;;;;5022513;28;20511;-80
2022/02/06 16:15:34;;;;;;;1.73;1.63;;;6.70;99.90;;;;;;5021860;28;20450;-81
2022/02/06 16:18:18;;;;;;;1.50;1.20;;;6.80;99.90;;;;;;5021304;28;20416;-81
2022/02/06 16:21:03;;;;;;;1.27;1.17;;;6.80;99.90;;;;;;5021987;28;20770;-81
2022/02/06 16:23:49;;;;;;;1.40;1.30;;;6.90;99.90;;;;;;5024051;28;20752;-81
2022/02/06 16:26:33;;;;;;;1.07;0.97;;;6.80;99.90;;;;;;5022540;28;20383;-81
2022/02/06 16:29:19;;;;;;;1.40;1.30;;;6.80;99.90;;;;;;5021581;28;20393;-81
2022/02/06 16:32:04;;;;;;;1.50;1.40;;;6.80;99.90;;;;;;5020996;28;20435;-81
2022/02/06 16:34:49;;;;;;;1.57;1.47;;;6.80;99.90;;;;;;5007357;28;20420;-81
2022/02/06 16:37:33;;;;;;;1.00;1.00;;;6.90;99.90;;;;;;5022710;28;20746;-81